createdAt,value
2023-03-28T00:01:40.195Z,6.10
2023-03-28T00:04:06.910Z,6.00
2023-03-28T00:06:33.574Z,6.00
2023-03-28T00:09:00.274Z,6.00
2023-03-28T00:11:26.964Z,5.90
2023-03-28T00:14:08.234Z,5.90
2023-03-28T00:16:37.534Z,5.90
2023-03-28T00:19:07.673Z,5.90
2023-03-28T00:21:37.533Z,5.90
2023-03-28T00:24:06.071Z,5.80
2023-03-28T00:26:35.431Z,5.80
2023-03-28T00:29:04.378Z,5.80
2023-03-28T00:31:32.350Z,5.80
2023-03-28T00:33:59.154Z,5.70
2023-03-28T00:36:29.199Z,5.70
2023-03-28T00:38:57.866Z,5.70
2023-03-28T00:41:30.997Z,5.70
2023-03-28T00:43:58.859Z,5.70
2023-03-28T00:46:41.864Z,5.70
2023-03-28T00:49:24.954Z,5.60
2023-03-28T00:51:58.096Z,5.60
2023-03-28T00:54:28.298Z,5.60
2023-03-28T00:57:00.188Z,5.60
2023-03-28T00:59:30.751Z,5.60
2023-03-28T01:01:57.699Z,5.50
2023-03-28T01:04:29.618Z,5.50
2023-03-28T01:06:58.931Z,5.50
2023-03-28T01:09:26.964Z,5.50
2023-03-28T01:11:55.993Z,5.40
2023-03-28T01:14:26.323Z,5.40
2023-03-28T01:16:56.197Z,5.40
2023-03-28T01:19:32.612Z,5.40
2023-03-28T01:22:14.915Z,5.40
2023-03-28T01:25:06.133Z,5.30
2023-03-28T01:28:02.200Z,5.30
2023-03-28T01:31:01.828Z,5.30
2023-03-28T01:33:50.288Z,5.20
2023-03-28T01:36:53.399Z,5.20
2023-03-28T01:39:30.430Z,5.20
2023-03-28T01:42:09.023Z,5.20
2023-03-28T01:44:47.653Z,5.20
2023-03-28T01:47:24.107Z,5.10
2023-03-28T01:50:18.617Z,5.10
2023-03-28T01:52:53.804Z,5.10
2023-03-28T01:55:27.587Z,5.10
2023-03-28T01:58:06.602Z,5.00
2023-03-28T02:00:46.049Z,5.00
2023-03-28T02:03:20.334Z,5.00
2023-03-28T02:05:49.401Z,5.00
2023-03-28T02:08:18.836Z,4.90
2023-03-28T02:10:47.394Z,4.90
2023-03-28T02:13:21.613Z,4.90
2023-03-28T02:15:54.124Z,4.90
2023-03-28T02:18:29.646Z,4.90
2023-03-28T02:21:04.201Z,4.90
2023-03-28T02:23:32.802Z,4.80
2023-03-28T02:25:59.637Z,4.80
2023-03-28T02:28:26.862Z,4.80
2023-03-28T02:30:53.648Z,4.80
2023-03-28T02:33:37.880Z,4.70
2023-03-28T02:36:13.715Z,4.70
2023-03-28T02:38:52.085Z,4.70
2023-03-28T02:41:34.092Z,4.70
2023-03-28T02:44:52.216Z,4.70
2023-03-28T02:47:38.377Z,4.70
2023-03-28T02:50:25.618Z,4.70
2023-03-28T02:53:17.807Z,4.70
2023-03-28T02:56:11.817Z,4.60
2023-03-28T02:58:48.618Z,4.60
2023-03-28T03:01:15.346Z,4.60
2023-03-28T03:03:45.741Z,4.60
2023-03-28T03:06:12.581Z,4.60
2023-03-28T03:08:39.384Z,4.60
2023-03-28T03:11:06.529Z,4.60
2023-03-28T03:13:33.381Z,4.60
2023-03-28T03:16:00.302Z,4.50
2023-03-28T03:18:27.432Z,4.50
2023-03-28T03:20:54.721Z,4.50
2023-03-28T03:23:21.527Z,4.50
2023-03-28T03:25:50.572Z,4.50
2023-03-28T03:28:17.514Z,4.50
2023-03-28T03:30:44.397Z,4.50
2023-03-28T03:33:11.222Z,4.40
2023-03-28T03:35:45.770Z,4.40
2023-03-28T03:38:13.107Z,4.40
2023-03-28T03:40:40.147Z,4.40
2023-03-28T03:43:06.861Z,4.40
2023-03-28T03:45:33.567Z,4.40
2023-03-28T03:48:00.243Z,4.30
2023-03-28T03:50:26.853Z,4.30
2023-03-28T03:52:53.569Z,4.30
2023-03-28T03:55:20.854Z,4.30
2023-03-28T03:57:47.573Z,4.20
2023-03-28T04:00:14.702Z,4.20
2023-03-28T04:02:41.538Z,4.30
2023-03-28T04:05:08.785Z,4.20
2023-03-28T04:07:35.960Z,4.20
2023-03-28T04:10:03.066Z,4.20
2023-03-28T04:12:29.752Z,4.20
2023-03-28T04:14:56.686Z,4.20
2023-03-28T04:17:28.742Z,4.20
2023-03-28T04:19:55.997Z,4.20
2023-03-28T04:22:23.913Z,4.20
2023-03-28T04:24:53.265Z,4.20
2023-03-28T04:27:20.173Z,4.20
2023-03-28T04:29:46.858Z,4.10
2023-03-28T04:32:13.733Z,4.10
2023-03-28T04:34:40.430Z,4.10
2023-03-28T04:37:09.164Z,4.10
2023-03-28T04:39:36.126Z,4.10
2023-03-28T04:42:05.519Z,4.10
2023-03-28T04:44:32.694Z,4.00
2023-03-28T04:46:59.763Z,4.00
2023-03-28T04:49:26.838Z,4.00
2023-03-28T04:51:53.751Z,4.00
2023-03-28T04:54:20.630Z,4.00
2023-03-28T04:56:50.862Z,4.00
2023-03-28T04:59:18.209Z,3.90
2023-03-28T05:01:49.555Z,3.90
2023-03-28T05:04:21.947Z,3.90
2023-03-28T05:06:49.890Z,3.90
2023-03-28T05:09:17.542Z,3.90
2023-03-28T05:11:46.336Z,3.90
2023-03-28T05:14:13.077Z,3.90
2023-03-28T05:16:39.767Z,3.90
2023-03-28T05:19:06.911Z,3.90
2023-03-28T05:21:33.663Z,3.90
2023-03-28T05:24:00.368Z,3.80
2023-03-28T05:26:27.956Z,3.90
2023-03-28T05:28:54.679Z,3.80
2023-03-28T05:31:21.380Z,3.80
2023-03-28T05:33:48.071Z,3.80
2023-03-28T05:36:14.842Z,3.80
2023-03-28T05:38:42.183Z,3.80
2023-03-28T05:41:08.858Z,3.80
2023-03-28T05:43:35.481Z,3.80
2023-03-28T05:46:02.237Z,3.80
2023-03-28T05:48:29.118Z,3.80
2023-03-28T05:50:56.475Z,3.80
2023-03-28T05:53:23.275Z,3.70
2023-03-28T05:55:50.985Z,3.80
2023-03-28T05:58:17.690Z,3.80
2023-03-28T06:00:44.607Z,3.80
2023-03-28T06:03:16.746Z,3.80
2023-03-28T06:05:44.500Z,3.80
2023-03-28T06:08:11.931Z,3.80
2023-03-28T06:10:38.902Z,3.80
2023-03-28T06:13:05.640Z,3.80
2023-03-28T06:15:33.147Z,3.80
2023-03-28T06:17:59.907Z,3.80
2023-03-28T06:20:26.631Z,3.80
2023-03-28T06:22:53.353Z,3.80
2023-03-28T06:25:20.191Z,3.90
2023-03-28T06:27:46.953Z,3.90
2023-03-28T06:30:14.182Z,3.90
2023-03-28T06:32:41.066Z,3.90
2023-03-28T06:35:08.318Z,3.90
2023-03-28T06:37:35.028Z,3.90
2023-03-28T06:40:01.919Z,4.00
2023-03-28T06:42:28.651Z,4.00
2023-03-28T06:44:55.490Z,4.00
2023-03-28T06:47:22.331Z,4.10
2023-03-28T06:49:49.093Z,4.10
2023-03-28T06:52:16.690Z,4.10
2023-03-28T06:54:43.381Z,4.10
2023-03-28T06:57:10.127Z,4.20
2023-03-28T06:59:36.798Z,4.20
2023-03-28T07:02:03.612Z,4.20
2023-03-28T07:04:32.622Z,4.30
2023-03-28T07:06:59.294Z,4.40
2023-03-28T07:09:26.114Z,4.30
2023-03-28T07:11:52.911Z,4.40
2023-03-28T07:14:19.636Z,4.40
2023-03-28T07:16:46.338Z,4.50
2023-03-28T07:19:12.977Z,4.50
2023-03-28T07:21:39.753Z,4.50
2023-03-28T07:24:06.850Z,4.60
2023-03-28T07:26:33.590Z,4.60
2023-03-28T07:29:00.303Z,4.70
2023-03-28T07:31:27.279Z,4.70
2023-03-28T07:33:57.642Z,4.70
2023-03-28T07:36:26.457Z,4.80
2023-03-28T07:38:53.131Z,4.80
2023-03-28T07:41:19.934Z,4.90
2023-03-28T07:43:46.567Z,4.90
2023-03-28T07:46:15.013Z,4.90
2023-03-28T07:48:42.615Z,5.00
2023-03-28T07:51:10.668Z,5.00
2023-03-28T07:53:38.057Z,5.10
2023-03-28T07:56:10.655Z,5.10
2023-03-28T07:58:38.870Z,5.20
2023-03-28T08:01:11.920Z,5.20
2023-03-28T08:03:39.629Z,5.20
2023-03-28T08:06:16.985Z,5.30
2023-03-28T08:08:51.909Z,5.40
2023-03-28T08:11:18.697Z,5.40
2023-03-28T08:13:45.518Z,5.50
2023-03-28T08:16:12.338Z,5.50
2023-03-28T08:18:39.102Z,5.60
2023-03-28T08:21:06.137Z,5.60
2023-03-28T08:23:32.897Z,5.70
2023-03-28T08:26:05.018Z,5.80
2023-03-28T08:28:36.995Z,5.80
2023-03-28T08:31:15.380Z,5.90
2023-03-28T08:33:43.199Z,6.00
2023-03-28T08:36:14.687Z,6.00
2023-03-28T08:38:46.543Z,6.10
2023-03-28T08:41:50.593Z,6.20
2023-03-28T08:44:42.208Z,6.20
2023-03-28T08:47:19.710Z,6.30
2023-03-28T08:49:53.850Z,6.30
2023-03-28T08:52:21.159Z,6.40
2023-03-28T08:55:06.925Z,6.50
2023-03-28T08:57:35.946Z,6.50
2023-03-28T09:00:28.111Z,6.60
2023-03-28T09:02:55.504Z,6.70
2023-03-28T09:05:36.437Z,6.80
2023-03-28T09:08:20.072Z,6.80
2023-03-28T09:11:13.462Z,6.90
2023-03-28T09:14:14.705Z,7.00
2023-03-28T09:17:02.995Z,7.10
2023-03-28T09:20:24.362Z,7.20
2023-03-28T09:23:15.450Z,7.20
2023-03-28T09:25:42.131Z,7.30
2023-03-28T09:28:20.729Z,7.30
2023-03-28T09:30:50.188Z,7.50
2023-03-28T09:33:22.735Z,7.50
2023-03-28T09:35:52.801Z,7.60
2023-03-28T09:38:25.138Z,7.70
2023-03-28T09:40:58.425Z,7.80
2023-03-28T09:43:34.914Z,7.90
2023-03-28T09:46:05.491Z,7.90
2023-03-28T09:48:35.505Z,8.10
2023-03-28T09:51:04.477Z,8.10
2023-03-28T09:53:37.746Z,8.20
2023-03-28T09:56:27.502Z,8.30
2023-03-28T09:58:56.705Z,8.40
2023-03-28T10:01:34.509Z,8.50
2023-03-28T10:04:02.359Z,8.60
2023-03-28T10:06:31.777Z,8.70
2023-03-28T10:09:28.471Z,8.80
2023-03-28T10:12:08.916Z,8.90
2023-03-28T10:14:42.217Z,9.00
2023-03-28T10:17:30.096Z,9.10
2023-03-28T10:20:15.785Z,9.20
2023-03-28T10:22:46.920Z,9.30
2023-03-28T10:25:23.179Z,9.50
2023-03-28T10:27:52.126Z,9.60
2023-03-28T10:30:31.519Z,9.70
2023-03-28T10:33:16.783Z,9.90
2023-03-28T10:35:54.144Z,10.10
2023-03-28T10:38:22.979Z,10.20
2023-03-28T10:41:00.771Z,10.40
2023-03-28T10:43:41.140Z,10.60
2023-03-28T10:46:31.770Z,10.80
2023-03-28T10:49:06.075Z,11.00
2023-03-28T10:51:33.477Z,11.10
2023-03-28T10:54:26.817Z,11.20
2023-03-28T10:57:09.420Z,11.50
2023-03-28T10:59:47.835Z,11.70
2023-03-28T11:02:48.690Z,11.80
2023-03-28T11:05:54.966Z,12.00
2023-03-28T11:08:41.932Z,12.10
2023-03-28T11:11:36.787Z,12.20
2023-03-28T11:14:31.029Z,12.40
2023-03-28T11:17:38.304Z,12.60
2023-03-28T11:20:17.405Z,12.70
2023-03-28T11:23:05.090Z,12.80
2023-03-28T11:25:43.734Z,12.90
2023-03-28T11:28:29.237Z,13.10
2023-03-28T11:30:58.586Z,13.10
2023-03-28T11:33:48.086Z,13.20
2023-03-28T11:36:22.798Z,13.30
2023-03-28T11:38:51.275Z,13.40
2023-03-28T11:41:23.947Z,13.40
2023-03-28T11:44:00.136Z,13.50
2023-03-28T11:46:43.312Z,13.50
2023-03-28T11:49:28.758Z,13.60
2023-03-28T11:52:05.888Z,13.70
2023-03-28T11:54:41.534Z,13.70
2023-03-28T11:57:32.557Z,13.80
2023-03-28T12:03:15.035Z,13.90
2023-03-28T12:06:04.863Z,13.90
2023-03-28T12:08:35.110Z,14.00
2023-03-28T12:11:20.404Z,14.00
2023-03-28T12:14:18.251Z,14.10
2023-03-28T12:16:48.849Z,14.10
2023-03-28T12:19:23.263Z,14.20
2023-03-28T12:21:58.693Z,14.20
2023-03-28T12:24:42.652Z,14.20
2023-03-28T12:27:31.409Z,14.30
2023-03-28T12:30:22.733Z,14.30
2023-03-28T12:33:18.577Z,14.40
2023-03-28T12:36:10.600Z,14.40
2023-03-28T12:38:55.973Z,14.50
2023-03-28T12:41:49.194Z,14.40
2023-03-28T12:44:28.380Z,14.50
2023-03-28T12:47:06.425Z,14.50
2023-03-28T12:49:48.855Z,14.50
2023-03-28T12:52:21.467Z,14.50
2023-03-28T12:55:01.456Z,14.50
2023-03-28T12:57:41.142Z,14.50
2023-03-28T13:00:28.120Z,14.40
2023-03-28T13:03:27.060Z,14.40
2023-03-28T13:06:20.036Z,14.40
2023-03-28T13:09:13.558Z,14.40
2023-03-28T13:11:50.534Z,14.40
2023-03-28T13:14:41.099Z,14.30
2023-03-28T13:17:25.670Z,14.30
2023-03-28T13:19:55.711Z,14.30
2023-03-28T13:22:32.690Z,14.40
2023-03-28T13:25:21.519Z,14.40
2023-03-28T13:27:50.011Z,14.30
2023-03-28T13:30:28.681Z,14.40
2023-03-28T13:33:03.487Z,14.40
2023-03-28T13:36:09.381Z,14.40
2023-03-28T13:38:56.372Z,14.40
2023-03-28T13:41:36.015Z,14.40
2023-03-28T13:44:10.602Z,14.40
2023-03-28T13:46:45.864Z,14.30
2023-03-28T13:49:21.606Z,14.30
2023-03-28T13:51:55.837Z,14.30
2023-03-28T13:54:24.058Z,14.20
2023-03-28T13:56:52.901Z,14.20
2023-03-28T13:59:32.451Z,14.20
2023-03-28T14:02:02.130Z,14.20
2023-03-28T14:04:30.649Z,14.20
2023-03-28T14:06:58.558Z,14.10
2023-03-28T14:09:28.373Z,14.10
2023-03-28T14:12:07.553Z,14.10
2023-03-28T14:14:44.109Z,14.10
2023-03-28T14:17:21.969Z,14.00
2023-03-28T14:19:54.265Z,14.00
2023-03-28T14:22:25.618Z,14.00
2023-03-28T14:24:54.672Z,13.90
2023-03-28T14:27:37.748Z,13.80
2023-03-28T14:30:19.267Z,13.80
2023-03-28T14:32:57.465Z,13.70
2023-03-28T14:35:29.531Z,13.70
2023-03-28T14:38:01.265Z,13.70
2023-03-28T14:40:36.805Z,13.60
2023-03-28T14:43:07.145Z,13.60
2023-03-28T14:45:37.588Z,13.60
2023-03-28T14:48:08.497Z,13.50
2023-03-28T14:50:38.137Z,13.40
2023-03-28T14:53:07.939Z,13.40
2023-03-28T14:55:37.860Z,13.40
2023-03-28T14:58:06.141Z,13.40
2023-03-28T15:00:39.991Z,13.30
2023-03-28T15:03:22.968Z,13.30
2023-03-28T15:05:51.852Z,13.20
2023-03-28T15:08:34.094Z,13.20
2023-03-28T15:11:06.366Z,13.20
2023-03-28T15:13:37.173Z,13.20
2023-03-28T15:16:08.170Z,13.20
2023-03-28T15:18:47.109Z,13.10
2023-03-28T15:21:15.160Z,13.10
2023-03-28T15:23:50.236Z,13.10
2023-03-28T15:26:29.283Z,13.00
2023-03-28T15:28:57.837Z,13.00
2023-03-28T15:31:26.051Z,13.00
2023-03-28T15:33:53.779Z,13.00
2023-03-28T15:36:32.246Z,12.90
2023-03-28T15:39:18.433Z,12.90
2023-03-28T15:41:49.552Z,12.90
2023-03-28T15:44:26.819Z,12.90
2023-03-28T15:47:01.295Z,12.80
2023-03-28T15:49:28.634Z,12.80
2023-03-28T15:52:01.491Z,12.80
2023-03-28T15:54:31.932Z,12.70
2023-03-28T15:57:01.923Z,12.70
2023-03-28T15:59:41.222Z,12.70
2023-03-28T16:02:28.227Z,12.70
2023-03-28T16:05:06.186Z,12.70
2023-03-28T16:07:48.206Z,12.60
2023-03-28T16:10:20.943Z,12.60
2023-03-28T16:12:48.482Z,12.60
2023-03-28T16:15:15.608Z,12.50
2023-03-28T16:17:44.603Z,12.50
2023-03-28T16:20:21.125Z,12.40
2023-03-28T16:22:48.532Z,12.40
2023-03-28T16:25:15.580Z,12.30
2023-03-28T16:27:42.831Z,12.30
2023-03-28T16:30:20.863Z,12.20
2023-03-28T16:32:47.593Z,12.20
2023-03-28T16:35:14.324Z,12.20
2023-03-28T16:37:41.253Z,12.10
2023-03-28T16:40:10.656Z,12.10
2023-03-28T16:42:37.292Z,12.10
2023-03-28T16:45:04.640Z,12.00
2023-03-28T16:47:31.400Z,12.00
2023-03-28T16:49:58.278Z,11.90
2023-03-28T16:52:26.676Z,11.90
2023-03-28T16:54:54.457Z,11.90
2023-03-28T16:57:21.335Z,11.80
2023-03-28T16:59:47.984Z,11.80
2023-03-28T17:02:14.641Z,11.70
2023-03-28T17:04:41.430Z,11.70
2023-03-28T17:07:08.199Z,11.70
2023-03-28T17:09:35.051Z,11.60
2023-03-28T17:12:01.661Z,11.60
2023-03-28T17:14:28.491Z,11.60
2023-03-28T17:16:55.197Z,11.50
2023-03-28T17:19:23.980Z,11.50
2023-03-28T17:21:50.614Z,11.40
2023-03-28T17:24:18.080Z,11.40
2023-03-28T17:26:44.856Z,11.40
2023-03-28T17:29:12.130Z,11.30
2023-03-28T17:31:39.099Z,11.30
2023-03-28T17:34:06.040Z,11.20
2023-03-28T17:36:33.233Z,11.20
2023-03-28T17:39:00.233Z,11.20
2023-03-28T17:41:27.759Z,11.20
2023-03-28T17:43:56.542Z,11.20
2023-03-28T17:46:24.416Z,11.10
2023-03-28T17:48:51.252Z,11.10
2023-03-28T17:51:18.245Z,11.00
2023-03-28T17:53:46.912Z,11.00
2023-03-28T17:56:14.414Z,10.90
2023-03-28T17:58:41.116Z,10.90
2023-03-28T18:01:17.232Z,10.90
2023-03-28T18:03:45.711Z,10.80
2023-03-28T18:06:13.269Z,10.80
2023-03-28T18:08:40.527Z,10.70
2023-03-28T18:11:10.780Z,10.70
2023-03-28T18:13:38.162Z,10.70
2023-03-28T18:16:09.203Z,10.70
2023-03-28T18:18:36.575Z,10.60
2023-03-28T18:21:04.240Z,10.60
2023-03-28T18:23:31.812Z,10.60
2023-03-28T18:25:58.690Z,10.60
2023-03-28T18:28:25.959Z,10.50
2023-03-28T18:30:53.559Z,10.40
2023-03-28T18:33:22.078Z,10.40
2023-03-28T18:35:49.378Z,10.40
2023-03-28T18:38:16.253Z,10.40
2023-03-28T18:40:42.976Z,10.40
2023-03-28T18:43:10.058Z,10.30
2023-03-28T18:45:37.213Z,10.30
2023-03-28T18:48:04.806Z,10.30
2023-03-28T18:50:31.904Z,10.20
2023-03-28T18:52:58.668Z,10.20
2023-03-28T18:55:25.540Z,10.20
2023-03-28T18:57:53.070Z,10.20
2023-03-28T19:00:20.421Z,10.20
2023-03-28T19:02:48.762Z,10.10
2023-03-28T19:05:16.819Z,10.10
2023-03-28T19:07:46.287Z,10.10
2023-03-28T19:10:13.409Z,10.10
2023-03-28T19:12:41.690Z,10.00
2023-03-28T19:15:10.827Z,10.00
2023-03-28T19:17:38.581Z,9.90
2023-03-28T19:20:07.845Z,9.90
2023-03-28T19:22:37.875Z,9.90
2023-03-28T19:25:05.093Z,9.90
2023-03-28T19:27:32.018Z,9.90
2023-03-28T19:29:58.704Z,9.90
2023-03-28T19:32:25.862Z,9.80
2023-03-28T19:34:52.596Z,9.80
2023-03-28T19:37:19.502Z,9.80
2023-03-28T19:39:46.144Z,9.80
2023-03-28T19:42:12.805Z,9.70
2023-03-28T19:44:39.503Z,9.70
2023-03-28T19:47:06.878Z,9.70
2023-03-28T19:49:33.737Z,9.70
2023-03-28T19:52:00.474Z,9.70
2023-03-28T19:54:27.282Z,9.70
2023-03-28T19:56:53.956Z,9.60
2023-03-28T19:59:20.758Z,9.60
2023-03-28T20:01:48.974Z,9.60
2023-03-28T20:04:15.683Z,9.60
2023-03-28T20:06:42.391Z,9.50
2023-03-28T20:09:09.144Z,9.50
2023-03-28T20:11:37.797Z,9.50
2023-03-28T20:14:04.528Z,9.50
2023-03-28T20:16:31.312Z,9.40
2023-03-28T20:18:58.691Z,9.50
2023-03-28T20:21:26.163Z,9.40
2023-03-28T20:23:53.958Z,9.40
2023-03-28T20:26:26.005Z,9.40
2023-03-28T20:28:59.295Z,9.40
2023-03-28T20:31:27.343Z,9.40
2023-03-28T20:33:55.833Z,9.30
2023-03-28T20:36:22.843Z,9.30
2023-03-28T20:38:49.580Z,9.30
2023-03-28T20:41:18.039Z,9.20
2023-03-28T20:43:47.903Z,9.20
2023-03-28T20:46:18.579Z,9.20
2023-03-28T20:48:46.860Z,9.20
2023-03-28T20:51:17.091Z,9.20
2023-03-28T20:53:45.889Z,9.20
2023-03-28T20:56:13.704Z,9.20
2023-03-28T20:58:40.695Z,9.20
2023-03-28T21:01:09.444Z,9.20
2023-03-28T21:03:49.086Z,9.10
2023-03-28T21:06:29.389Z,9.10
2023-03-28T21:09:00.394Z,9.10
2023-03-28T21:11:30.705Z,9.10
2023-03-28T21:13:59.047Z,9.10
2023-03-28T21:16:27.330Z,9.10
2023-03-28T21:18:54.259Z,9.00
2023-03-28T21:21:21.959Z,9.00
2023-03-28T21:23:49.170Z,9.00
2023-03-28T21:26:18.834Z,9.00
2023-03-28T21:28:46.426Z,9.00
2023-03-28T21:31:19.774Z,9.00
2023-03-28T21:33:47.878Z,9.00
2023-03-28T21:36:16.421Z,8.90
2023-03-28T21:38:44.508Z,8.90
2023-03-28T21:41:12.174Z,8.90
2023-03-28T21:43:39.442Z,8.90
2023-03-28T21:46:07.972Z,8.90
2023-03-28T21:48:35.507Z,8.90
2023-03-28T21:51:03.051Z,8.90
2023-03-28T21:53:32.951Z,8.80
2023-03-28T21:55:59.875Z,8.80
2023-03-28T21:58:28.994Z,8.90
2023-03-28T22:00:56.243Z,8.80
2023-03-28T22:03:23.465Z,8.90
2023-03-28T22:05:52.077Z,8.80
2023-03-28T22:08:19.696Z,8.80
2023-03-28T22:10:55.651Z,8.80
2023-03-28T22:13:23.737Z,8.80
2023-03-28T22:15:52.352Z,8.80
2023-03-28T22:18:19.896Z,8.80
2023-03-28T22:20:52.943Z,8.80
2023-03-28T22:23:20.715Z,8.80
2023-03-28T22:25:47.414Z,8.80
2023-03-28T22:28:14.655Z,8.80
2023-03-28T22:30:41.857Z,8.80
2023-03-28T22:33:10.577Z,8.80
2023-03-28T22:35:37.458Z,8.80
2023-03-28T22:38:04.986Z,8.80
2023-03-28T22:40:32.232Z,8.70
2023-03-28T22:42:58.936Z,8.70
2023-03-28T22:45:26.460Z,8.70
2023-03-28T22:47:53.618Z,8.70
2023-03-28T22:50:22.495Z,8.70
2023-03-28T22:52:52.690Z,8.70
2023-03-28T22:55:22.135Z,8.70
2023-03-28T22:57:51.512Z,8.70
2023-03-28T23:00:18.755Z,8.70
2023-03-28T23:02:46.689Z,8.70
2023-03-28T23:05:13.609Z,8.70
2023-03-28T23:07:41.507Z,8.70
2023-03-28T23:10:12.002Z,8.70
2023-03-28T23:12:38.608Z,8.70
2023-03-28T23:15:05.695Z,8.70
2023-03-28T23:17:32.959Z,8.70
2023-03-28T23:20:00.520Z,8.70
2023-03-28T23:22:27.220Z,8.70
2023-03-28T23:24:53.877Z,8.70
2023-03-28T23:27:20.796Z,8.70
2023-03-28T23:29:47.456Z,8.70
2023-03-28T23:32:14.134Z,8.70
2023-03-28T23:34:41.019Z,8.70
2023-03-28T23:37:07.617Z,8.70
2023-03-28T23:39:34.218Z,8.70
2023-03-28T23:42:01.268Z,8.70
2023-03-28T23:44:28.013Z,8.70
2023-03-28T23:46:56.137Z,8.70
2023-03-28T23:49:23.238Z,8.70
2023-03-28T23:51:50.788Z,8.70
2023-03-28T23:54:18.579Z,8.70
2023-03-28T23:56:45.697Z,8.70
2023-03-28T23:59:12.554Z,8.70
